Sy Liara — 2BSK4 — position and weather

sailwx.info

Track history (hours):
 
Tides and Currents Weather Stations Pressure Air Temp Water Temp Dewpoint Dewpoint Depression Visibility Wind Speed Wind Dir Waves Ship Positions

Sy Liara

Last reported at 2014-Dec-22 04:10 UTC. Time now 2014-Dec-22 09:57 UTC.
Position N 16°56' W 061°48'.

Length 30 m.

Type: Sailing vessel. MMSI: 235068934.

Date/timePositionNaut miles runAvg speedWind from/ knotsBaromVisibWave heightAir tempDewpointWater temp
2014-Dec-22 04:10N 16°56' W 061°48'610.0
2014-Dec-22 03:33N 16°51' W 061°44'10 9.7
2014-Dec-22 02:32N 16°44' W 061°37'10 9.5
2014-Dec-22 01:31N 16°37' W 061°29'  
2014-Dec-18 19:32N 16°34' W 061°48'9 9.6
2014-Dec-18 18:33N 16°44' W 061°48'8 8.2
2014-Dec-18 17:33N 16°52' W 061°48'9 8.6
2014-Dec-18 16:33N 17°00' W 061°47'0 0.3
2014-Dec-18 15:31N 17°01' W 061°47'1 0.7
2014-Dec-18 14:31N 17°01' W 061°47'0 0.0
2014-Dec-18 13:31N 17°01' W 061°47'0 0.0
2014-Dec-18 12:31N 17°01' W 061°47'0 0.0
2014-Dec-18 11:31N 17°01' W 061°47'0 0.0
2014-Dec-18 10:31N 17°01' W 061°47'0 0.0
2014-Dec-18 09:31N 17°01' W 061°47'0 0.0
2014-Dec-18 08:31N 17°01' W 061°47'0 0.0
2014-Dec-18 07:31N 17°01' W 061°47'0 0.0
2014-Dec-18 06:31N 17°01' W 061°47'0 0.0
2014-Dec-18 05:31N 17°01' W 061°47'0 0.0
2014-Dec-18 04:31N 17°01' W 061°47'0 0.0
2014-Dec-18 03:31N 17°01' W 061°47'0 0.0
2014-Dec-18 02:31N 17°01' W 061°47'0 0.0
2014-Dec-18 01:31N 17°01' W 061°47'0 0.0
2014-Dec-18 00:31N 17°01' W 061°47'0 0.0
2014-Dec-17 23:31N 17°01' W 061°47'0 0.0
2014-Dec-17 22:31N 17°01' W 061°47'0 0.0
2014-Dec-17 21:31N 17°01' W 061°47'0 0.0
2014-Dec-17 20:31N 17°01' W 061°47'0 0.0
2014-Dec-17 19:31N 17°01' W 061°47'0 0.0
2014-Dec-17 18:31N 17°01' W 061°47'0 0.0
2014-Dec-17 17:31N 17°01' W 061°47'0 0.0
2014-Dec-17 16:31N 17°01' W 061°47'0 0.0
2014-Dec-17 15:31N 17°01' W 061°47'0 0.0
2014-Dec-17 14:31N 17°01' W 061°47'0 0.0
2014-Dec-17 13:31N 17°01' W 061°47'0 0.0
2014-Dec-17 12:31N 17°01' W 061°47'0 0.0
2014-Dec-17 11:31N 17°01' W 061°47'0 0.0
2014-Dec-17 10:31N 17°01' W 061°47'0 0.0
2014-Dec-17 09:31N 17°01' W 061°47'0 0.0
2014-Dec-17 06:31N 17°01' W 061°47'0 0.0
2014-Dec-17 05:31N 17°01' W 061°47'0 0.0
2014-Dec-17 04:31N 17°01' W 061°47'0 0.0
2014-Dec-17 03:31N 17°01' W 061°47'0 0.0
2014-Dec-17 02:31N 17°01' W 061°47'0 0.0
2014-Dec-17 01:31N 17°01' W 061°47'0 0.0
2014-Dec-17 00:31N 17°01' W 061°47'0 0.0
2014-Dec-16 23:31N 17°01' W 061°47'0 0.0
2014-Dec-16 22:31N 17°01' W 061°47'0 0.0
2014-Dec-16 21:31N 17°01' W 061°47'0 0.0
2014-Dec-16 11:27N 17°01' W 061°47'0 0.0
2014-Dec-16 10:33N 17°01' W 061°47'0 0.0
2014-Dec-16 09:33N 17°01' W 061°47'0 0.0
2014-Dec-16 08:33N 17°01' W 061°47'0 0.0
2014-Dec-16 07:33N 17°01' W 061°47'0 0.0
2014-Dec-16 06:33N 17°01' W 061°47'0 0.0
2014-Dec-16 05:33N 17°01' W 061°47'0 0.0
2014-Dec-16 04:28N 17°01' W 061°47'0 0.0
2014-Dec-16 03:31N 17°01' W 061°47'0 0.0
2014-Dec-16 02:30N 17°01' W 061°47'0 0.0
2014-Dec-16 01:22N 17°01' W 061°47'0 0.0
2014-Dec-16 00:07N 17°01' W 061°47'0 0.0
2014-Dec-15 23:28N 17°01' W 061°47'0 0.0
2014-Dec-15 22:31N 17°01' W 061°47'0 0.0
2014-Dec-15 21:31N 17°01' W 061°47'0 0.0
2014-Dec-15 20:31N 17°01' W 061°47'0 0.0
2014-Dec-15 19:31N 17°01' W 061°47'0 0.0
2014-Dec-15 18:31N 17°01' W 061°47'0 0.0
2014-Dec-15 17:31N 17°01' W 061°47'0 0.0
2014-Dec-15 16:31N 17°01' W 061°47'0 0.0
2014-Dec-15 15:31N 17°01' W 061°47'0 0.0
2014-Dec-15 14:31N 17°01' W 061°47'0 0.0
2014-Dec-15 13:31N 17°01' W 061°47'0 0.0
2014-Dec-15 12:31N 17°01' W 061°47'0 0.0
2014-Dec-15 11:31N 17°01' W 061°47'0 0.0
2014-Dec-15 10:31N 17°01' W 061°47'0 0.0
2014-Dec-15 09:31N 17°01' W 061°47'0 0.0
2014-Dec-15 08:31N 17°01' W 061°47'0 0.0
2014-Dec-15 07:31N 17°01' W 061°47'0 0.0
2014-Dec-15 06:31N 17°01' W 061°47'0 0.0
2014-Dec-15 05:31N 17°01' W 061°47'0 0.0
2014-Dec-15 04:31N 17°01' W 061°47'0 0.0
2014-Dec-15 03:31N 17°01' W 061°47'0 0.0
2014-Dec-15 02:31N 17°01' W 061°47'0 0.0
2014-Dec-15 01:31N 17°01' W 061°47'0 0.0
2014-Dec-15 00:31N 17°01' W 061°47'0 0.0
2014-Dec-14 23:31N 17°01' W 061°47'0 0.0
2014-Dec-14 22:31N 17°01' W 061°47'0 0.0
2014-Dec-14 21:31N 17°01' W 061°47'0 0.0
2014-Dec-14 20:31N 17°01' W 061°47'0 0.0
2014-Dec-14 19:31N 17°01' W 061°47'0 0.0
2014-Dec-14 18:31N 17°01' W 061°47'0 0.0
2014-Dec-14 17:31N 17°01' W 061°47'0 0.0
2014-Dec-14 16:31N 17°01' W 061°47'0 0.0
2014-Dec-14 15:31N 17°01' W 061°47'0 0.0
2014-Dec-14 14:31N 17°01' W 061°47'0 0.0
2014-Dec-14 13:31N 17°01' W 061°47'0 0.0
2014-Dec-14 12:31N 17°01' W 061°47'0 0.0
2014-Dec-14 11:31N 17°01' W 061°47'0 0.0
2014-Dec-14 10:31N 17°01' W 061°47'0 0.0
2014-Dec-14 09:31N 17°01' W 061°47'0 0.0
2014-Dec-14 08:31N 17°01' W 061°47'0 0.0
2014-Dec-14 07:31N 17°01' W 061°47'0 0.0
2014-Dec-14 06:31N 17°01' W 061°47'0 0.0
2014-Dec-14 05:31N 17°01' W 061°47'0 0.0
2014-Dec-14 04:31N 17°01' W 061°47'0 0.0
2014-Dec-14 03:31N 17°01' W 061°47'0 0.0
2014-Dec-14 02:31N 17°01' W 061°47'0 0.0
2014-Dec-14 01:31N 17°01' W 061°47'  
Track history (hours):
 
Tides and Currents Weather Stations Pressure Air Temp Water Temp Dewpoint Dewpoint Depression Visibility Wind Speed Wind Dir Waves Ship Positions

Sy Liara

Last reported at 2014-Dec-22 04:10 UTC. Time now 2014-Dec-22 09:57 UTC.
Position N 16°56' W 061°48'.

Length 30 m.

Type: Sailing vessel. MMSI: 235068934.

Date/timePositionNaut miles runAvg speedWind from/ knotsBaromVisibWave heightAir tempDewpointWater temp
2014-Dec-22 04:10N 16°56' W 061°48'610.0
2014-Dec-22 03:33N 16°51' W 061°44'10 9.7
2014-Dec-22 02:32N 16°44' W 061°37'10 9.5
2014-Dec-22 01:31N 16°37' W 061°29'  
2014-Dec-18 19:32N 16°34' W 061°48'9 9.6
2014-Dec-18 18:33N 16°44' W 061°48'8 8.2
2014-Dec-18 17:33N 16°52' W 061°48'9 8.6
2014-Dec-18 16:33N 17°00' W 061°47'0 0.3
2014-Dec-18 15:31N 17°01' W 061°47'1 0.7
2014-Dec-18 14:31N 17°01' W 061°47'0 0.0
2014-Dec-18 13:31N 17°01' W 061°47'0 0.0
2014-Dec-18 12:31N 17°01' W 061°47'0 0.0
2014-Dec-18 11:31N 17°01' W 061°47'0 0.0
2014-Dec-18 10:31N 17°01' W 061°47'0 0.0
2014-Dec-18 09:31N 17°01' W 061°47'0 0.0
2014-Dec-18 08:31N 17°01' W 061°47'0 0.0
2014-Dec-18 07:31N 17°01' W 061°47'0 0.0
2014-Dec-18 06:31N 17°01' W 061°47'0 0.0
2014-Dec-18 05:31N 17°01' W 061°47'0 0.0
2014-Dec-18 04:31N 17°01' W 061°47'0 0.0
2014-Dec-18 03:31N 17°01' W 061°47'0 0.0
2014-Dec-18 02:31N 17°01' W 061°47'0 0.0
2014-Dec-18 01:31N 17°01' W 061°47'0 0.0
2014-Dec-18 00:31N 17°01' W 061°47'0 0.0
2014-Dec-17 23:31N 17°01' W 061°47'0 0.0
2014-Dec-17 22:31N 17°01' W 061°47'0 0.0
2014-Dec-17 21:31N 17°01' W 061°47'0 0.0
2014-Dec-17 20:31N 17°01' W 061°47'0 0.0
2014-Dec-17 19:31N 17°01' W 061°47'0 0.0
2014-Dec-17 18:31N 17°01' W 061°47'0 0.0
2014-Dec-17 17:31N 17°01' W 061°47'0 0.0
2014-Dec-17 16:31N 17°01' W 061°47'0 0.0
2014-Dec-17 15:31N 17°01' W 061°47'0 0.0
2014-Dec-17 14:31N 17°01' W 061°47'0 0.0
2014-Dec-17 13:31N 17°01' W 061°47'0 0.0
2014-Dec-17 12:31N 17°01' W 061°47'0 0.0
2014-Dec-17 11:31N 17°01' W 061°47'0 0.0
2014-Dec-17 10:31N 17°01' W 061°47'0 0.0
2014-Dec-17 09:31N 17°01' W 061°47'0 0.0
2014-Dec-17 06:31N 17°01' W 061°47'0 0.0
2014-Dec-17 05:31N 17°01' W 061°47'0 0.0
2014-Dec-17 04:31N 17°01' W 061°47'0 0.0
2014-Dec-17 03:31N 17°01' W 061°47'0 0.0
2014-Dec-17 02:31N 17°01' W 061°47'0 0.0
2014-Dec-17 01:31N 17°01' W 061°47'0 0.0
2014-Dec-17 00:31N 17°01' W 061°47'0 0.0
2014-Dec-16 23:31N 17°01' W 061°47'0 0.0
2014-Dec-16 22:31N 17°01' W 061°47'0 0.0
2014-Dec-16 21:31N 17°01' W 061°47'0 0.0
2014-Dec-16 11:27N 17°01' W 061°47'0 0.0
2014-Dec-16 10:33N 17°01' W 061°47'0 0.0
2014-Dec-16 09:33N 17°01' W 061°47'0 0.0
2014-Dec-16 08:33N 17°01' W 061°47'0 0.0
2014-Dec-16 07:33N 17°01' W 061°47'0 0.0
2014-Dec-16 06:33N 17°01' W 061°47'0 0.0
2014-Dec-16 05:33N 17°01' W 061°47'0 0.0
2014-Dec-16 04:28N 17°01' W 061°47'0 0.0
2014-Dec-16 03:31N 17°01' W 061°47'0 0.0
2014-Dec-16 02:30N 17°01' W 061°47'0 0.0
2014-Dec-16 01:22N 17°01' W 061°47'0 0.0
2014-Dec-16 00:07N 17°01' W 061°47'0 0.0
2014-Dec-15 23:28N 17°01' W 061°47'0 0.0
2014-Dec-15 22:31N 17°01' W 061°47'0 0.0
2014-Dec-15 21:31N 17°01' W 061°47'0 0.0
2014-Dec-15 20:31N 17°01' W 061°47'0 0.0
2014-Dec-15 19:31N 17°01' W 061°47'0 0.0
2014-Dec-15 18:31N 17°01' W 061°47'0 0.0
2014-Dec-15 17:31N 17°01' W 061°47'0 0.0
2014-Dec-15 16:31N 17°01' W 061°47'0 0.0
2014-Dec-15 15:31N 17°01' W 061°47'0 0.0
2014-Dec-15 14:31N 17°01' W 061°47'0 0.0
2014-Dec-15 13:31N 17°01' W 061°47'0 0.0
2014-Dec-15 12:31N 17°01' W 061°47'0 0.0
2014-Dec-15 11:31N 17°01' W 061°47'0 0.0
2014-Dec-15 10:31N 17°01' W 061°47'0 0.0
2014-Dec-15 09:31N 17°01' W 061°47'0 0.0
2014-Dec-15 08:31N 17°01' W 061°47'0 0.0
2014-Dec-15 07:31N 17°01' W 061°47'0 0.0
2014-Dec-15 06:31N 17°01' W 061°47'0 0.0
2014-Dec-15 05:31N 17°01' W 061°47'0 0.0
2014-Dec-15 04:31N 17°01' W 061°47'0 0.0
2014-Dec-15 03:31N 17°01' W 061°47'0 0.0
2014-Dec-15 02:31N 17°01' W 061°47'0 0.0
2014-Dec-15 01:31N 17°01' W 061°47'0 0.0
2014-Dec-15 00:31N 17°01' W 061°47'0 0.0
2014-Dec-14 23:31N 17°01' W 061°47'0 0.0
2014-Dec-14 22:31N 17°01' W 061°47'0 0.0
2014-Dec-14 21:31N 17°01' W 061°47'0 0.0
2014-Dec-14 20:31N 17°01' W 061°47'0 0.0
2014-Dec-14 19:31N 17°01' W 061°47'0 0.0
2014-Dec-14 18:31N 17°01' W 061°47'0 0.0
2014-Dec-14 17:31N 17°01' W 061°47'0 0.0
2014-Dec-14 16:31N 17°01' W 061°47'0 0.0
2014-Dec-14 15:31N 17°01' W 061°47'0 0.0
2014-Dec-14 14:31N 17°01' W 061°47'0 0.0
2014-Dec-14 13:31N 17°01' W 061°47'0 0.0
2014-Dec-14 12:31N 17°01' W 061°47'0 0.0
2014-Dec-14 11:31N 17°01' W 061°47'0 0.0
2014-Dec-14 10:31N 17°01' W 061°47'0 0.0
2014-Dec-14 09:31N 17°01' W 061°47'0 0.0
2014-Dec-14 08:31N 17°01' W 061°47'0 0.0
2014-Dec-14 07:31N 17°01' W 061°47'0 0.0
2014-Dec-14 06:31N 17°01' W 061°47'0 0.0
2014-Dec-14 05:31N 17°01' W 061°47'0 0.0
2014-Dec-14 04:31N 17°01' W 061°47'0 0.0
2014-Dec-14 03:31N 17°01' W 061°47'0 0.0
2014-Dec-14 02:31N 17°01' W 061°47'0 0.0
2014-Dec-14 01:31N 17°01' W 061°47'  

Dump ship's entire track history